sensor_id;sensor_type;location;lat;lon;timestamp;pressure;altitude;pressure_sealevel;temperature;humidity
84310;BME280;74488;49.036;11.472;2024-02-15T00:00:56;97844.25;;;8.17;91.59
84310;BME280;74488;49.036;11.472;2024-02-15T00:02:01;97831.59;;;8.22;91.46
84310;BME280;74488;49.036;11.472;2024-02-15T00:03:03;97839.66;;;8.20;91.41
84310;BME280;74488;49.036;11.472;2024-02-15T00:04:25;97837.28;;;8.14;91.49
84310;BME280;74488;49.036;11.472;2024-02-15T00:05:27;97848.91;;;8.11;91.59
84310;BME280;74488;49.036;11.472;2024-02-15T00:06:28;97846.41;;;8.08;91.63
84310;BME280;74488;49.036;11.472;2024-02-15T00:07:30;97839.44;;;8.06;91.84
84310;BME280;74488;49.036;11.472;2024-02-15T00:08:31;97843.09;;;8.03;92.33
84310;BME280;74488;49.036;11.472;2024-02-15T00:09:34;97836.91;;;8.03;92.32
84310;BME280;74488;49.036;11.472;2024-02-15T00:10:35;97838.69;;;8.02;92.24
84310;BME280;74488;49.036;11.472;2024-02-15T00:11:37;97843.13;;;8.02;92.36
84310;BME280;74488;49.036;11.472;2024-02-15T00:12:40;97842.31;;;8.01;92.29
84310;BME280;74488;49.036;11.472;2024-02-15T00:13:42;97810.97;;;7.89;92.33
84310;BME280;74488;49.036;11.472;2024-02-15T00:14:45;97830.72;;;8.02;91.95
84310;BME280;74488;49.036;11.472;2024-02-15T00:15:46;97840.44;;;8.03;91.83
84310;BME280;74488;49.036;11.472;2024-02-15T00:16:49;97837.81;;;8.02;91.76
84310;BME280;74488;49.036;11.472;2024-02-15T00:17:51;97840.69;;;7.97;91.89
84310;BME280;74488;49.036;11.472;2024-02-15T00:18:53;97838.97;;;7.96;92.13
84310;BME280;74488;49.036;11.472;2024-02-15T00:19:56;97842.63;;;7.94;92.09
84310;BME280;74488;49.036;11.472;2024-02-15T00:20:58;97840.91;;;7.93;91.98
84310;BME280;74488;49.036;11.472;2024-02-15T00:22:01;97841.88;;;7.90;92.24
84310;BME280;74488;49.036;11.472;2024-02-15T00:23:03;97841.56;;;7.98;92.41
84310;BME280;74488;49.036;11.472;2024-02-15T00:24:04;97833.25;;;8.05;92.05
84310;BME280;74488;49.036;11.472;2024-02-15T00:25:06;97829.53;;;8.09;91.80
84310;BME280;74488;49.036;11.472;2024-02-15T00:26:10;97820.59;;;8.10;91.81
84310;BME280;74488;49.036;11.472;2024-02-15T00:27:17;97809.81;;;7.95;91.43
84310;BME280;74488;49.036;11.472;2024-02-15T00:28:18;97837.56;;;8.08;91.76
84310;BME280;74488;49.036;11.472;2024-02-15T00:29:21;97836.81;;;8.04;91.71
84310;BME280;74488;49.036;11.472;2024-02-15T00:30:23;97833.50;;;7.99;91.92
84310;BME280;74488;49.036;11.472;2024-02-15T00:31:25;97782.81;;;7.65;92.15
84310;BME280;74488;49.036;11.472;2024-02-15T00:32:26;97837.41;;;7.92;92.59
84310;BME280;74488;49.036;11.472;2024-02-15T00:33:28;97834.66;;;7.94;92.20
84310;BME280;74488;49.036;11.472;2024-02-15T00:34:31;97831.13;;;7.93;92.11
84310;BME280;74488;49.036;11.472;2024-02-15T00:35:33;97835.38;;;7.97;92.15
84310;BME280;74488;49.036;11.472;2024-02-15T00:36:34;97833.59;;;7.98;92.34
84310;BME280;74488;49.036;11.472;2024-02-15T00:37:36;97836.25;;;7.98;92.31
84310;BME280;74488;49.036;11.472;2024-02-15T00:38:38;97838.97;;;7.96;92.25
84310;BME280;74488;49.036;11.472;2024-02-15T00:39:39;97845.09;;;7.98;92.41
84310;BME280;74488;49.036;11.472;2024-02-15T00:40:41;97837.97;;;7.99;92.47
84310;BME280;74488;49.036;11.472;2024-02-15T00:41:42;97839.03;;;7.95;92.51
84310;BME280;74488;49.036;11.472;2024-02-15T00:42:44;97824.38;;;7.86;92.69
84310;BME280;74488;49.036;11.472;2024-02-15T00:43:45;97830.56;;;7.87;93.07
84310;BME280;74488;49.036;11.472;2024-02-15T00:44:47;97830.59;;;7.85;93.02
84310;BME280;74488;49.036;11.472;2024-02-15T00:45:49;97837.56;;;7.88;93.01
84310;BME280;74488;49.036;11.472;2024-02-15T00:46:50;97833.09;;;7.90;93.00
84310;BME280;74488;49.036;11.472;2024-02-15T00:47:52;97830.44;;;7.90;92.68
84310;BME280;74488;49.036;11.472;2024-02-15T00:48:55;97831.81;;;7.98;92.78
84310;BME280;74488;49.036;11.472;2024-02-15T00:49:57;97826.41;;;8.00;92.51
84310;BME280;74488;49.036;11.472;2024-02-15T00:50:59;97829.06;;;8.00;92.79
84310;BME280;74488;49.036;11.472;2024-02-15T00:52:01;97826.50;;;7.98;92.42
84310;BME280;74488;49.036;11.472;2024-02-15T00:53:03;97823.53;;;8.04;92.59
84310;BME280;74488;49.036;11.472;2024-02-15T00:54:05;97819.16;;;8.03;92.17
84310;BME280;74488;49.036;11.472;2024-02-15T00:55:06;97830.66;;;8.04;92.06
84310;BME280;74488;49.036;11.472;2024-02-15T00:56:08;97822.63;;;8.05;91.92
84310;BME280;74488;49.036;11.472;2024-02-15T00:57:10;97828.94;;;8.03;91.91
84310;BME280;74488;49.036;11.472;2024-02-15T00:58:11;97829.94;;;8.00;92.20
84310;BME280;74488;49.036;11.472;2024-02-15T00:59:13;97827.31;;;7.99;92.51
84310;BME280;74488;49.036;11.472;2024-02-15T01:00:15;97824.53;;;8.02;92.22
84310;BME280;74488;49.036;11.472;2024-02-15T01:01:17;97828.06;;;8.02;92.29
84310;BME280;74488;49.036;11.472;2024-02-15T01:02:19;97835.97;;;8.04;92.43
84310;BME280;74488;49.036;11.472;2024-02-15T01:03:20;97811.69;;;7.93;92.43
84310;BME280;74488;49.036;11.472;2024-02-15T01:04:22;97827.28;;;8.00;92.09
84310;BME280;74488;49.036;11.472;2024-02-15T01:05:24;97828.06;;;8.02;92.16
84310;BME280;74488;49.036;11.472;2024-02-15T01:06:25;97822.69;;;8.04;91.95
84310;BME280;74488;49.036;11.472;2024-02-15T01:07:27;97824.41;;;8.05;91.75
84310;BME280;74488;49.036;11.472;2024-02-15T01:08:29;97821.75;;;8.05;91.87
84310;BME280;74488;49.036;11.472;2024-02-15T01:09:31;97831.38;;;8.07;91.82
84310;BME280;74488;49.036;11.472;2024-02-15T01:10:32;97819.91;;;8.07;91.74
84310;BME280;74488;49.036;11.472;2024-02-15T01:11:35;97824.34;;;8.06;91.75
84310;BME280;74488;49.036;11.472;2024-02-15T01:12:38;97816.38;;;8.06;91.89
84310;BME280;74488;49.036;11.472;2024-02-15T01:13:39;97815.56;;;8.04;91.73
84310;BME280;74488;49.036;11.472;2024-02-15T01:14:41;97820.09;;;8.02;91.77
84310;BME280;74488;49.036;11.472;2024-02-15T01:15:44;97824.53;;;8.02;91.89
84310;BME280;74488;49.036;11.472;2024-02-15T01:16:47;97822.75;;;8.02;91.98
84310;BME280;74488;49.036;11.472;2024-02-15T01:17:49;97824.53;;;8.02;92.00
84310;BME280;74488;49.036;11.472;2024-02-15T01:18:51;97827.19;;;8.02;92.08
84310;BME280;74488;49.036;11.472;2024-02-15T01:19:52;97824.47;;;8.03;92.12
84310;BME280;74488;49.036;11.472;2024-02-15T01:20:54;97825.28;;;8.05;91.90
84310;BME280;74488;49.036;11.472;2024-02-15T01:21:56;97826.00;;;8.09;91.91
84310;BME280;74488;49.036;11.472;2024-02-15T01:23:01;97828.72;;;8.07;92.19
84310;BME280;74488;49.036;11.472;2024-02-15T01:24:02;97829.72;;;8.05;92.46
84310;BME280;74488;49.036;11.472;2024-02-15T01:25:08;97831.38;;;8.07;92.25
84310;BME280;74488;49.036;11.472;2024-02-15T01:26:10;97816.50;;;8.03;92.44
84310;BME280;74488;49.036;11.472;2024-02-15T01:27:14;97826.72;;;8.12;92.34
84310;BME280;74488;49.036;11.472;2024-02-15T01:28:15;97821.09;;;8.19;91.93
84310;BME280;74488;49.036;11.472;2024-02-15T01:29:17;97824.00;;;8.14;92.02
84310;BME280;74488;49.036;11.472;2024-02-15T01:30:18;97822.38;;;8.10;92.35
84310;BME280;74488;49.036;11.472;2024-02-15T01:31:20;97825.03;;;8.10;92.76
84310;BME280;74488;49.036;11.472;2024-02-15T01:32:22;97818.03;;;8.09;92.71
84310;BME280;74488;49.036;11.472;2024-02-15T01:33:23;97825.13;;;8.08;92.82
84310;BME280;74488;49.036;11.472;2024-02-15T01:34:25;97829.53;;;8.09;92.91
84310;BME280;74488;49.036;11.472;2024-02-15T01:35:27;97827.00;;;8.06;92.99
84310;BME280;74488;49.036;11.472;2024-02-15T01:36:29;97826.91;;;8.08;93.14
84310;BME280;74488;49.036;11.472;2024-02-15T01:37:30;97819.09;;;8.05;93.10
84310;BME280;74488;49.036;11.472;2024-02-15T01:38:32;97819.81;;;8.08;92.84
84310;BME280;74488;49.036;11.472;2024-02-15T01:39:33;97815.41;;;8.07;93.01
84310;BME280;74488;49.036;11.472;2024-02-15T01:40:35;97820.75;;;8.07;92.64
84310;BME280;74488;49.036;11.472;2024-02-15T01:41:36;97815.41;;;8.07;93.05
84310;BME280;74488;49.036;11.472;2024-02-15T01:42:39;97816.28;;;8.08;92.87
84310;BME280;74488;49.036;11.472;2024-02-15T01:43:44;97804.78;;;8.07;92.67
84310;BME280;74488;49.036;11.472;2024-02-15T01:44:49;97803.50;;;8.16;92.04
84310;BME280;74488;49.036;11.472;2024-02-15T01:45:51;97818.25;;;8.23;92.03
84310;BME280;74488;49.036;11.472;2024-02-15T01:46:53;97816.47;;;8.24;91.87
84310;BME280;74488;49.036;11.472;2024-02-15T01:47:55;97820.03;;;8.23;91.97
84310;BME280;74488;49.036;11.472;2024-02-15T01:48:57;97816.59;;;8.21;91.80
84310;BME280;74488;49.036;11.472;2024-02-15T01:49:59;97814.88;;;8.20;91.69
84310;BME280;74488;49.036;11.472;2024-02-15T01:51:01;97802.34;;;8.22;91.54
84310;BME280;74488;49.036;11.472;2024-02-15T01:52:04;97810.19;;;8.25;91.08
84310;BME280;74488;49.036;11.472;2024-02-15T01:53:07;97810.28;;;8.23;91.07
84310;BME280;74488;49.036;11.472;2024-02-15T01:54:12;97811.28;;;8.21;91.21
84310;BME280;74488;49.036;11.472;2024-02-15T01:55:16;97801.53;;;8.21;91.24
84310;BME280;74488;49.036;11.472;2024-02-15T01:56:20;97799.84;;;8.19;91.04
84310;BME280;74488;49.036;11.472;2024-02-15T01:57:23;97798.31;;;8.13;91.26
84310;BME280;74488;49.036;11.472;2024-02-15T01:58:26;97802.84;;;8.11;91.22
84310;BME280;74488;49.036;11.472;2024-02-15T01:59:29;97801.06;;;8.11;91.35
84310;BME280;74488;49.036;11.472;2024-02-15T02:00:31;97803.22;;;8.03;91.39
84310;BME280;74488;49.036;11.472;2024-02-15T02:01:34;97808.88;;;7.96;92.28
84310;BME280;74488;49.036;11.472;2024-02-15T02:02:38;97810.97;;;7.89;92.14
84310;BME280;74488;49.036;11.472;2024-02-15T02:03:40;97807.16;;;7.95;92.29
84310;BME280;74488;49.036;11.472;2024-02-15T02:04:42;97803.34;;;8.00;91.94
84310;BME280;74488;49.036;11.472;2024-02-15T02:05:44;97806.28;;;7.94;92.31
84310;BME280;74488;49.036;11.472;2024-02-15T02:06:46;97808.22;;;7.91;92.29
84310;BME280;74488;49.036;11.472;2024-02-15T02:07:47;97815.25;;;7.92;92.29
84310;BME280;74488;49.036;11.472;2024-02-15T02:08:49;97814.41;;;7.91;92.61
84310;BME280;74488;49.036;11.472;2024-02-15T02:09:51;97810.75;;;7.94;92.36
84310;BME280;74488;49.036;11.472;2024-02-15T02:10:52;97816.28;;;7.89;92.26
84310;BME280;74488;49.036;11.472;2024-02-15T02:11:54;97793.81;;;7.76;92.54
84310;BME280;74488;49.036;11.472;2024-02-15T02:12:56;97819.72;;;7.91;92.73
84310;BME280;74488;49.036;11.472;2024-02-15T02:13:57;97809.88;;;7.93;92.68
84310;BME280;74488;49.036;11.472;2024-02-15T02:14:59;97810.69;;;7.95;92.46
84310;BME280;74488;49.036;11.472;2024-02-15T02:16:01;97809.09;;;7.91;92.36
84310;BME280;74488;49.036;11.472;2024-02-15T02:17:12;97819.56;;;7.94;92.42
84310;BME280;74488;49.036;11.472;2024-02-15T02:18:15;97805.38;;;7.95;92.24
84310;BME280;74488;49.036;11.472;2024-02-15T02:19:17;97804.38;;;7.98;92.05
84310;BME280;74488;49.036;11.472;2024-02-15T02:20:19;97808.41;;;8.06;91.66
84310;BME280;74488;49.036;11.472;2024-02-15T02:21:21;97806.53;;;8.08;91.34
84310;BME280;74488;49.036;11.472;2024-02-15T02:22:23;97809.28;;;8.07;91.42
84310;BME280;74488;49.036;11.472;2024-02-15T02:23:26;97792.59;;;8.03;91.39
84310;BME280;74488;49.036;11.472;2024-02-15T02:24:33;97805.53;;;8.11;91.23
84310;BME280;74488;49.036;11.472;2024-02-15T02:25:38;97803.78;;;8.10;91.27
84310;BME280;74488;49.036;11.472;2024-02-15T02:26:40;97804.16;;;8.02;91.78
84310;BME280;74488;49.036;11.472;2024-02-15T02:27:42;97808.72;;;7.99;91.95
84310;BME280;74488;49.036;11.472;2024-02-15T02:28:43;97805.38;;;7.95;92.19
84310;BME280;74488;49.036;11.472;2024-02-15T02:29:45;97800.06;;;7.95;92.38
84310;BME280;74488;49.036;11.472;2024-02-15T02:30:47;97807.16;;;7.95;92.20
84310;BME280;74488;49.036;11.472;2024-02-15T02:31:49;97798.31;;;7.94;92.25
84310;BME280;74488;49.036;11.472;2024-02-15T02:32:51;97794.78;;;7.94;92.17
84310;BME280;74488;49.036;11.472;2024-02-15T02:33:53;97756.94;;;7.70;92.33
84310;BME280;74488;49.036;11.472;2024-02-15T02:34:56;97800.19;;;7.92;92.32
84310;BME280;74488;49.036;11.472;2024-02-15T02:35:58;97798.44;;;7.91;92.21
84310;BME280;74488;49.036;11.472;2024-02-15T02:37:00;97794.88;;;7.92;92.38
84310;BME280;74488;49.036;11.472;2024-02-15T02:38:06;97791.25;;;7.93;92.20
84310;BME280;74488;49.036;11.472;2024-02-15T02:39:08;97792.13;;;7.94;92.29
84310;BME280;74488;49.036;11.472;2024-02-15T02:40:10;97800.75;;;7.99;92.21
84310;BME280;74488;49.036;11.472;2024-02-15T02:41:13;97791.25;;;7.93;92.17
84310;BME280;74488;49.036;11.472;2024-02-15T02:42:15;97793.13;;;7.91;92.42
84310;BME280;74488;49.036;11.472;2024-02-15T02:43:16;97785.91;;;7.95;92.31
84310;BME280;74488;49.036;11.472;2024-02-15T02:44:18;97792.00;;;7.97;91.98
84310;BME280;74488;49.036;11.472;2024-02-15T02:45:20;97788.59;;;7.93;91.98
84310;BME280;74488;49.036;11.472;2024-02-15T02:46:24;97788.56;;;7.95;92.09
84310;BME280;74488;49.036;11.472;2024-02-15T02:47:26;97795.75;;;7.93;92.02
84310;BME280;74488;49.036;11.472;2024-02-15T02:48:27;97793.09;;;7.93;92.05
84310;BME280;74488;49.036;11.472;2024-02-15T02:49:29;97794.88;;;7.92;91.98
84310;BME280;74488;49.036;11.472;2024-02-15T02:50:31;97781.59;;;7.92;91.96
84310;BME280;74488;49.036;11.472;2024-02-15T02:51:33;97789.16;;;8.01;91.91
84310;BME280;74488;49.036;11.472;2024-02-15T02:52:35;97785.25;;;8.08;91.42
84310;BME280;74488;49.036;11.472;2024-02-15T02:53:40;97788.56;;;8.13;91.19
84310;BME280;74488;49.036;11.472;2024-02-15T02:54:42;97786.03;;;8.10;91.26
84310;BME280;74488;49.036;11.472;2024-02-15T02:55:43;97791.63;;;8.04;91.22
84310;BME280;74488;49.036;11.472;2024-02-15T02:56:45;97789.19;;;8.00;91.46
84310;BME280;74488;49.036;11.472;2024-02-15T02:57:46;97794.59;;;7.98;91.66
84310;BME280;74488;49.036;11.472;2024-02-15T02:58:48;97793.00;;;7.94;91.76
84310;BME280;74488;49.036;11.472;2024-02-15T02:59:49;97801.75;;;7.96;91.77
84310;BME280;74488;49.036;11.472;2024-02-15T03:00:52;97798.81;;;8.02;91.65
84310;BME280;74488;49.036;11.472;2024-02-15T03:01:53;97795.38;;;8.00;91.63
84310;BME280;74488;49.036;11.472;2024-02-15T03:02:58;97793.47;;;8.04;91.58
84310;BME280;74488;49.036;11.472;2024-02-15T03:03:59;97791.72;;;8.03;91.43
84310;BME280;74488;49.036;11.472;2024-02-15T03:05:05;97744.47;;;7.71;91.47
84310;BME280;74488;49.036;11.472;2024-02-15T03:06:07;97792.88;;;7.97;91.72
84310;BME280;74488;49.036;11.472;2024-02-15T03:07:09;97798.31;;;7.94;91.88
84310;BME280;74488;49.036;11.472;2024-02-15T03:08:13;97763.38;;;7.65;91.76
84310;BME280;74488;49.036;11.472;2024-02-15T03:09:15;97793.53;;;7.82;92.17
84310;BME280;74488;49.036;11.472;2024-02-15T03:10:17;97802.19;;;7.87;92.35
84310;BME280;74488;49.036;11.472;2024-02-15T03:11:20;97805.03;;;7.83;92.63
84310;BME280;74488;49.036;11.472;2024-02-15T03:12:21;97803.25;;;7.83;92.58
84310;BME280;74488;49.036;11.472;2024-02-15T03:13:23;97801.38;;;7.85;92.87
84310;BME280;74488;49.036;11.472;2024-02-15T03:14:24;97800.47;;;7.86;92.95
84310;BME280;74488;49.036;11.472;2024-02-15T03:15:26;97793.28;;;7.88;92.66
84310;BME280;74488;49.036;11.472;2024-02-15T03:16:28;97802.97;;;7.89;92.91
84310;BME280;74488;49.036;11.472;2024-02-15T03:17:29;97797.59;;;7.91;92.30
84310;BME280;74488;49.036;11.472;2024-02-15T03:18:32;97800.19;;;7.92;92.29
84310;BME280;74488;49.036;11.472;2024-02-15T03:19:34;97802.84;;;7.92;92.54
84310;BME280;74488;49.036;11.472;2024-02-15T03:20:39;97799.38;;;7.90;92.49
84310;BME280;74488;49.036;11.472;2024-02-15T03:21:41;97800.97;;;7.94;92.37
84310;BME280;74488;49.036;11.472;2024-02-15T03:22:54;97760.78;;;7.82;92.00
84310;BME280;74488;49.036;11.472;2024-02-15T03:23:57;97747.88;;;7.74;91.83
84310;BME280;74488;49.036;11.472;2024-02-15T03:24:58;97795.53;;;7.97;91.81
84310;BME280;74488;49.036;11.472;2024-02-15T03:26:01;97773.53;;;7.75;92.07
84310;BME280;74488;49.036;11.472;2024-02-15T03:27:03;97803.03;;;7.88;92.41
84310;BME280;74488;49.036;11.472;2024-02-15T03:28:05;97803.03;;;7.88;92.28
84310;BME280;74488;49.036;11.472;2024-02-15T03:29:06;97797.72;;;7.88;92.57
84310;BME280;74488;49.036;11.472;2024-02-15T03:30:09;97799.47;;;7.89;92.36
84310;BME280;74488;49.036;11.472;2024-02-15T03:31:12;97799.47;;;7.89;92.25
84310;BME280;74488;49.036;11.472;2024-02-15T03:32:14;97802.03;;;7.90;92.42
84310;BME280;74488;49.036;11.472;2024-02-15T03:33:16;97798.59;;;7.88;92.11
84310;BME280;74488;49.036;11.472;2024-02-15T03:34:17;97804.78;;;7.89;92.25
84310;BME280;74488;49.036;11.472;2024-02-15T03:35:24;97797.81;;;7.86;92.42
84310;BME280;74488;49.036;11.472;2024-02-15T03:36:26;97800.59;;;7.83;92.43
84310;BME280;74488;49.036;11.472;2024-02-15T03:37:30;97803.31;;;7.82;92.58
84310;BME280;74488;49.036;11.472;2024-02-15T03:38:32;97798.00;;;7.82;93.06
84310;BME280;74488;49.036;11.472;2024-02-15T03:39:33;97805.91;;;7.83;92.83
84310;BME280;74488;49.036;11.472;2024-02-15T03:40:35;97801.38;;;7.85;92.66
84310;BME280;74488;49.036;11.472;2024-02-15T03:41:37;97797.66;;;7.89;92.78
84310;BME280;74488;49.036;11.472;2024-02-15T03:42:39;97803.78;;;7.91;92.49
84310;BME280;74488;49.036;11.472;2024-02-15T03:43:40;97798.44;;;7.91;92.53
84310;BME280;74488;49.036;11.472;2024-02-15T03:44:42;97804.63;;;7.92;92.32
84310;BME280;74488;49.036;11.472;2024-02-15T03:45:43;97802.13;;;7.89;92.66
84310;BME280;74488;49.036;11.472;2024-02-15T03:46:46;97803.03;;;7.88;92.73
84310;BME280;74488;49.036;11.472;2024-02-15T03:47:52;97767.81;;;7.64;92.78
84310;BME280;74488;49.036;11.472;2024-02-15T03:48:54;97807.50;;;7.87;92.83
84310;BME280;74488;49.036;11.472;2024-02-15T03:49:59;97811.88;;;7.88;92.60
84310;BME280;74488;49.036;11.472;2024-02-15T03:51:00;97802.34;;;7.84;92.64
84310;BME280;74488;49.036;11.472;2024-02-15T03:52:03;97804.69;;;7.90;92.71
84310;BME280;74488;49.036;11.472;2024-02-15T03:53:04;97809.09;;;7.91;92.68
84310;BME280;74488;49.036;11.472;2024-02-15T03:54:09;97812.53;;;7.93;92.49
84310;BME280;74488;49.036;11.472;2024-02-15T03:55:11;97805.50;;;7.92;92.78
84310;BME280;74488;49.036;11.472;2024-02-15T03:56:13;97821.44;;;7.92;92.72
84310;BME280;74488;49.036;11.472;2024-02-15T03:57:15;97796.88;;;7.87;92.47
84310;BME280;74488;49.036;11.472;2024-02-15T03:58:18;97812.53;;;7.93;92.57
84310;BME280;74488;49.036;11.472;2024-02-15T03:59:20;97802.97;;;7.89;92.66
84310;BME280;74488;49.036;11.472;2024-02-15T04:00:28;97810.97;;;7.89;92.83
84310;BME280;74488;49.036;11.472;2024-02-15T04:01:30;97807.06;;;7.96;92.62
84310;BME280;74488;49.036;11.472;2024-02-15T04:02:35;97815.00;;;7.98;92.48
84310;BME280;74488;49.036;11.472;2024-02-15T04:03:37;97798.19;;;7.97;92.40
84310;BME280;74488;49.036;11.472;2024-02-15T04:04:38;97805.41;;;7.94;92.17
84310;BME280;74488;49.036;11.472;2024-02-15T04:05:43;97806.44;;;7.91;92.51
84310;BME280;74488;49.036;11.472;2024-02-15T04:06:45;97810.09;;;7.89;92.36
84310;BME280;74488;49.036;11.472;2024-02-15T04:07:47;97812.66;;;7.90;92.54
84310;BME280;74488;49.036;11.472;2024-02-15T04:08:49;97809.88;;;7.93;92.46
84310;BME280;74488;49.036;11.472;2024-02-15T04:09:51;97809.03;;;7.93;92.41
84310;BME280;74488;49.036;11.472;2024-02-15T04:10:52;97806.38;;;7.93;92.24
84310;BME280;74488;49.036;11.472;2024-02-15T04:11:54;97805.41;;;7.94;92.17
84310;BME280;74488;49.036;11.472;2024-02-15T04:12:58;97799.25;;;7.93;92.20
84310;BME280;74488;49.036;11.472;2024-02-15T04:14:00;97763.03;;;7.72;92.06
84310;BME280;74488;49.036;11.472;2024-02-15T04:15:02;97789.56;;;7.92;92.02
84310;BME280;74488;49.036;11.472;2024-02-15T04:16:14;97783.50;;;7.89;91.97
84310;BME280;74488;49.036;11.472;2024-02-15T04:17:15;97801.63;;;7.99;92.00
84310;BME280;74488;49.036;11.472;2024-02-15T04:18:19;97790.44;;;7.93;92.20
84310;BME280;74488;49.036;11.472;2024-02-15T04:19:21;97802.56;;;7.98;92.13
84310;BME280;74488;49.036;11.472;2024-02-15T04:20:23;97797.25;;;7.98;92.29
84310;BME280;74488;49.036;11.472;2024-02-15T04:21:25;97772.16;;;7.85;92.27
84310;BME280;74488;49.036;11.472;2024-02-15T04:22:28;97797.19;;;8.00;92.24
84310;BME280;74488;49.036;11.472;2024-02-15T04:23:30;97799.06;;;7.98;92.03
84310;BME280;74488;49.036;11.472;2024-02-15T04:24:32;97795.53;;;7.97;92.21
84310;BME280;74488;49.036;11.472;2024-02-15T04:25:33;97800.75;;;7.99;92.21
84310;BME280;74488;49.036;11.472;2024-02-15T04:26:35;97808.81;;;7.97;92.18
84310;BME280;74488;49.036;11.472;2024-02-15T04:27:38;97807.06;;;7.96;92.42
84310;BME280;74488;49.036;11.472;2024-02-15T04:28:41;97795.66;;;7.94;92.49
84310;BME280;74488;49.036;11.472;2024-02-15T04:29:45;97804.41;;;7.96;92.27
84310;BME280;74488;49.036;11.472;2024-02-15T04:30:47;97803.41;;;7.99;92.46
84310;BME280;74488;49.036;11.472;2024-02-15T04:31:50;97799.84;;;8.00;92.30
84310;BME280;74488;49.036;11.472;2024-02-15T04:32:51;97807.75;;;8.01;92.32
84310;BME280;74488;49.036;11.472;2024-02-15T04:33:55;97806.06;;;7.99;92.15
84310;BME280;74488;49.036;11.472;2024-02-15T04:34:57;97805.22;;;7.98;92.02
84310;BME280;74488;49.036;11.472;2024-02-15T04:35:58;97806.94;;;7.99;92.14
84310;BME280;74488;49.036;11.472;2024-02-15T04:37:03;97771.59;;;7.79;92.19
84310;BME280;74488;49.036;11.472;2024-02-15T04:38:10;97804.22;;;8.01;92.29
84310;BME280;74488;49.036;11.472;2024-02-15T04:39:12;97796.75;;;8.09;92.08
84310;BME280;74488;49.036;11.472;2024-02-15T04:40:24;97800.19;;;8.11;92.00
84310;BME280;74488;49.036;11.472;2024-02-15T04:41:26;97792.59;;;8.03;91.84
84310;BME280;74488;49.036;11.472;2024-02-15T04:42:28;97799.56;;;8.06;91.90
84310;BME280;74488;49.036;11.472;2024-02-15T04:43:32;97805.78;;;8.05;92.05
84310;BME280;74488;49.036;11.472;2024-02-15T04:44:35;97803.22;;;8.03;91.88
84310;BME280;74488;49.036;11.472;2024-02-15T04:45:36;97795.31;;;8.02;92.11
84310;BME280;74488;49.036;11.472;2024-02-15T04:46:38;97788.34;;;7.99;92.14
84310;BME280;74488;49.036;11.472;2024-02-15T04:47:40;97796.44;;;7.96;92.17
84310;BME280;74488;49.036;11.472;2024-02-15T04:48:42;97793.88;;;7.95;92.43
84310;BME280;74488;49.036;11.472;2024-02-15T04:49:44;97787.81;;;7.91;92.38
84310;BME280;74488;49.036;11.472;2024-02-15T04:50:46;97793.91;;;7.93;92.38
84310;BME280;74488;49.036;11.472;2024-02-15T04:51:47;97797.44;;;7.94;92.50
84310;BME280;74488;49.036;11.472;2024-02-15T04:52:49;97796.72;;;7.90;92.51
84310;BME280;74488;49.036;11.472;2024-02-15T04:53:51;97797.59;;;7.91;92.78
84310;BME280;74488;49.036;11.472;2024-02-15T04:54:52;97799.38;;;7.90;92.75
84310;BME280;74488;49.036;11.472;2024-02-15T04:55:56;97799.38;;;7.90;92.57
84310;BME280;74488;49.036;11.472;2024-02-15T04:56:57;97791.56;;;7.87;92.70
84310;BME280;74488;49.036;11.472;2024-02-15T04:57:59;97795.78;;;7.91;92.47
84310;BME280;74488;49.036;11.472;2024-02-15T04:59:01;97796.81;;;7.89;92.67
84310;BME280;74488;49.036;11.472;2024-02-15T05:00:04;97796.88;;;7.87;92.92
84310;BME280;74488;49.036;11.472;2024-02-15T05:01:15;97795.16;;;7.86;92.69
84310;BME280;74488;49.036;11.472;2024-02-15T05:02:17;97789.97;;;7.83;92.58
84310;BME280;74488;49.036;11.472;2024-02-15T05:03:18;97803.13;;;7.86;92.64
84310;BME280;74488;49.036;11.472;2024-02-15T05:04:20;97796.16;;;7.84;92.71
84310;BME280;74488;49.036;11.472;2024-02-15T05:05:21;97798.00;;;7.82;92.67
84310;BME280;74488;49.036;11.472;2024-02-15T05:06:24;97798.72;;;7.85;92.42
84310;BME280;74488;49.036;11.472;2024-02-15T05:07:31;97797.94;;;7.83;92.57
84310;BME280;74488;49.036;11.472;2024-02-15T05:08:32;97800.59;;;7.83;92.45
84310;BME280;74488;49.036;11.472;2024-02-15T05:09:36;97796.34;;;7.79;92.50
84310;BME280;74488;49.036;11.472;2024-02-15T05:10:38;97795.41;;;7.80;92.47
84310;BME280;74488;49.036;11.472;2024-02-15T05:11:40;97802.59;;;7.78;92.83
84310;BME280;74488;49.036;11.472;2024-02-15T05:12:49;97807.09;;;7.76;92.93
84310;BME280;74488;49.036;11.472;2024-02-15T05:13:51;97809.63;;;7.79;92.82
84310;BME280;74488;49.036;11.472;2024-02-15T05:14:53;97802.59;;;7.78;92.73
84310;BME280;74488;49.036;11.472;2024-02-15T05:15:55;97808.34;;;7.88;92.48
84310;BME280;74488;49.036;11.472;2024-02-15T05:16:57;97751.16;;;7.61;92.11
84310;BME280;74488;49.036;11.472;2024-02-15T05:17:58;97794.75;;;7.95;91.96
84310;BME280;74488;49.036;11.472;2024-02-15T05:19:02;97796.72;;;7.90;91.97
84310;BME280;74488;49.036;11.472;2024-02-15T05:20:05;97799.53;;;7.87;91.93
84310;BME280;74488;49.036;11.472;2024-02-15T05:21:12;97797.59;;;7.91;91.99
84310;BME280;74488;49.036;11.472;2024-02-15T05:22:14;97793.28;;;7.88;91.90
84310;BME280;74488;49.036;11.472;2024-02-15T05:23:16;97802.63;;;7.97;91.74
84310;BME280;74488;49.036;11.472;2024-02-15T05:24:19;97799.25;;;7.93;91.73
84310;BME280;74488;49.036;11.472;2024-02-15T05:25:21;97796.88;;;7.87;91.83
84310;BME280;74488;49.036;11.472;2024-02-15T05:26:27;97793.69;;;7.79;92.07
84310;BME280;74488;49.036;11.472;2024-02-15T05:27:29;97792.69;;;7.82;92.12
84310;BME280;74488;49.036;11.472;2024-02-15T05:28:31;97792.91;;;7.77;92.37
84310;BME280;74488;49.036;11.472;2024-02-15T05:29:33;97791.38;;;7.72;92.45
84310;BME280;74488;49.036;11.472;2024-02-15T05:30:38;97793.03;;;7.74;92.70
84310;BME280;74488;49.036;11.472;2024-02-15T05:31:41;97793.16;;;7.71;92.98